sensor_id;sensor_type;location;lat;lon;timestamp;pressure;altitude;pressure_sealevel;temperature;humidity
70758;BME280;59316;52.964;7.102;2023-03-14T00:01:48;98697.13;;;10.67;nan
70758;BME280;59316;52.964;7.102;2023-03-14T00:07:12;98697.66;;;10.98;nan
70758;BME280;59316;52.964;7.102;2023-03-14T00:12:34;98705.16;;;11.29;nan
70758;BME280;59316;52.964;7.102;2023-03-14T00:17:56;98701.22;;;11.43;nan
70758;BME280;59316;52.964;7.102;2023-03-14T00:23:17;98688.50;;;11.48;nan
70758;BME280;59316;52.964;7.102;2023-03-14T00:28:40;98679.38;;;11.34;nan
70758;BME280;59316;52.964;7.102;2023-03-14T00:34:02;98687.16;;;11.44;nan
70758;BME280;59316;52.964;7.102;2023-03-14T00:39:25;98677.81;;;11.60;nan
70758;BME280;59316;52.964;7.102;2023-03-14T00:44:46;98674.00;;;11.54;nan
70758;BME280;59316;52.964;7.102;2023-03-14T00:50:08;98669.63;;;11.63;nan
70758;BME280;59316;52.964;7.102;2023-03-14T00:55:31;98661.66;;;11.64;nan
70758;BME280;59316;52.964;7.102;2023-03-14T01:00:56;98669.75;;;11.35;nan
70758;BME280;59316;52.964;7.102;2023-03-14T01:06:24;98646.78;;;11.29;nan
70758;BME280;59316;52.964;7.102;2023-03-14T01:11:47;98653.81;;;11.46;nan
70758;BME280;59316;52.964;7.102;2023-03-14T01:17:10;98659.28;;;11.17;nan
70758;BME280;59316;52.964;7.102;2023-03-14T01:22:31;98649.41;;;11.11;nan
70758;BME280;59316;52.964;7.102;2023-03-14T01:27:53;98641.63;;;11.19;nan
70758;BME280;59316;52.964;7.102;2023-03-14T01:33:15;98651.13;;;11.20;nan
70758;BME280;59316;52.964;7.102;2023-03-14T01:38:39;98656.94;;;10.96;nan
70758;BME280;59316;52.964;7.102;2023-03-14T01:44:03;98637.19;;;10.83;nan
70758;BME280;59316;52.964;7.102;2023-03-14T01:49:32;98638.91;;;10.75;nan
70758;BME280;59316;52.964;7.102;2023-03-14T01:55:12;98636.84;;;10.50;nan
70758;BME280;59316;52.964;7.102;2023-03-14T02:00:36;98629.00;;;10.50;nan
70758;BME280;59316;52.964;7.102;2023-03-14T02:06:03;98626.31;;;10.60;nan
70758;BME280;59316;52.964;7.102;2023-03-14T02:11:28;98625.66;;;10.58;nan
70758;BME280;59316;52.964;7.102;2023-03-14T02:17:17;98643.66;;;10.24;nan
70758;BME280;59316;52.964;7.102;2023-03-14T02:23:06;98639.06;;;10.35;nan
70758;BME280;59316;52.964;7.102;2023-03-14T02:28:27;98638.66;;;10.68;nan
70758;BME280;59316;52.964;7.102;2023-03-14T02:33:52;98627.44;;;10.58;nan
70758;BME280;59316;52.964;7.102;2023-03-14T02:39:17;98620.28;;;10.60;nan
70758;BME280;59316;52.964;7.102;2023-03-14T02:44:55;98615.13;;;10.68;nan
70758;BME280;59316;52.964;7.102;2023-03-14T02:50:41;98626.50;;;10.77;nan
70758;BME280;59316;52.964;7.102;2023-03-14T02:56:04;98613.56;;;10.75;nan
70758;BME280;59316;52.964;7.102;2023-03-14T03:01:27;98604.25;;;10.91;nan
70758;BME280;59316;52.964;7.102;2023-03-14T03:06:48;98607.09;;;10.97;nan
70758;BME280;59316;52.964;7.102;2023-03-14T03:12:10;98606.50;;;11.04;nan
70758;BME280;59316;52.964;7.102;2023-03-14T03:17:32;98613.06;;;11.08;nan
70758;BME280;59316;52.964;7.102;2023-03-14T03:22:53;98614.56;;;11.10;nan
70758;BME280;59316;52.964;7.102;2023-03-14T03:28:15;98615.56;;;11.09;nan
70758;BME280;59316;52.964;7.102;2023-03-14T03:33:37;98615.84;;;10.88;nan
70758;BME280;59316;52.964;7.102;2023-03-14T03:38:59;98626.22;;;10.80;nan
70758;BME280;59316;52.964;7.102;2023-03-14T03:44:21;98597.50;;;10.52;nan
70758;BME280;59316;52.964;7.102;2023-03-14T03:49:44;98611.72;;;10.30;nan
70758;BME280;59316;52.964;7.102;2023-03-14T03:55:06;98613.81;;;10.26;nan
70758;BME280;59316;52.964;7.102;2023-03-14T04:00:27;98625.84;;;10.37;nan
70758;BME280;59316;52.964;7.102;2023-03-14T04:06:03;98608.63;;;10.44;nan
70758;BME280;59316;52.964;7.102;2023-03-14T04:11:29;98624.28;;;10.54;nan
70758;BME280;59316;52.964;7.102;2023-03-14T04:16:58;98620.03;;;10.53;nan
70758;BME280;59316;52.964;7.102;2023-03-14T04:22:20;98607.97;;;10.32;nan
70758;BME280;59316;52.964;7.102;2023-03-14T04:27:43;98611.38;;;10.15;nan
70758;BME280;59316;52.964;7.102;2023-03-14T04:33:16;98605.63;;;10.11;nan
70758;BME280;59316;52.964;7.102;2023-03-14T04:38:43;98588.06;;;10.03;nan
70758;BME280;59316;52.964;7.102;2023-03-14T04:44:08;98598.31;;;10.15;nan
70758;BME280;59316;52.964;7.102;2023-03-14T04:49:29;98601.41;;;10.28;nan
70758;BME280;59316;52.964;7.102;2023-03-14T04:54:51;98592.63;;;10.29;nan
70758;BME280;59316;52.964;7.102;2023-03-14T05:00:15;98586.63;;;10.19;nan
70758;BME280;59316;52.964;7.102;2023-03-14T05:05:45;98584.88;;;10.10;nan
70758;BME280;59316;52.964;7.102;2023-03-14T05:11:17;98583.75;;;10.12;nan
70758;BME280;59316;52.964;7.102;2023-03-14T05:17:08;98582.97;;;10.02;nan
70758;BME280;59316;52.964;7.102;2023-03-14T05:22:41;98573.03;;;10.06;nan
70758;BME280;59316;52.964;7.102;2023-03-14T05:28:13;98558.25;;;9.96;nan
70758;BME280;59316;52.964;7.102;2023-03-14T05:33:45;98567.25;;;9.84;nan
70758;BME280;59316;52.964;7.102;2023-03-14T05:39:27;98563.69;;;9.75;nan
70758;BME280;59316;52.964;7.102;2023-03-14T05:44:58;98560.53;;;9.81;nan
70758;BME280;59316;52.964;7.102;2023-03-14T05:50:38;98551.81;;;9.91;nan
70758;BME280;59316;52.964;7.102;2023-03-14T05:56:17;98545.25;;;10.14;nan
70758;BME280;59316;52.964;7.102;2023-03-14T06:02:00;98536.97;;;10.19;nan
70758;BME280;59316;52.964;7.102;2023-03-14T06:07:28;98550.81;;;10.29;nan
70758;BME280;59316;52.964;7.102;2023-03-14T06:12:49;98542.50;;;10.16;nan
70758;BME280;59316;52.964;7.102;2023-03-14T06:18:12;98541.28;;;10.10;nan
70758;BME280;59316;52.964;7.102;2023-03-14T06:23:34;98543.50;;;10.05;nan
70758;BME280;59316;52.964;7.102;2023-03-14T06:28:58;98547.38;;;10.01;nan
70758;BME280;59316;52.964;7.102;2023-03-14T06:34:19;98552.59;;;10.01;nan
70758;BME280;59316;52.964;7.102;2023-03-14T06:39:41;98564.97;;;9.99;nan
70758;BME280;59316;52.964;7.102;2023-03-14T06:45:11;98570.19;;;9.99;nan
70758;BME280;59316;52.964;7.102;2023-03-14T06:50:33;98581.03;;;10.04;nan
70758;BME280;59316;52.964;7.102;2023-03-14T06:55:54;98590.50;;;10.15;nan
70758;BME280;59316;52.964;7.102;2023-03-14T07:01:23;98600.06;;;10.24;nan
70758;BME280;59316;52.964;7.102;2023-03-14T07:06:48;98612.00;;;10.27;nan
70758;BME280;59316;52.964;7.102;2023-03-14T07:12:09;98618.00;;;10.37;nan
70758;BME280;59316;52.964;7.102;2023-03-14T07:17:32;98628.31;;;10.39;nan
70758;BME280;59316;52.964;7.102;2023-03-14T07:22:53;98636.34;;;10.27;nan
70758;BME280;59316;52.964;7.102;2023-03-14T07:28:27;98642.41;;;10.28;nan
70758;BME280;59316;52.964;7.102;2023-03-14T07:33:54;98641.75;;;10.16;nan
70758;BME280;59316;52.964;7.102;2023-03-14T07:39:17;98712.16;;;10.08;nan
70758;BME280;59316;52.964;7.102;2023-03-14T07:44:41;98737.13;;;8.62;nan
70758;BME280;59316;52.964;7.102;2023-03-14T07:50:04;98746.72;;;7.98;nan
70758;BME280;59316;52.964;7.102;2023-03-14T07:55:26;98765.34;;;7.61;nan
70758;BME280;59316;52.964;7.102;2023-03-14T08:00:48;98786.00;;;7.30;nan
70758;BME280;59316;52.964;7.102;2023-03-14T08:06:09;98848.66;;;6.92;nan
70758;BME280;59316;52.964;7.102;2023-03-14T08:11:31;98864.09;;;6.00;nan
70758;BME280;59316;52.964;7.102;2023-03-14T08:16:52;98894.78;;;5.45;nan
70758;BME280;59316;52.964;7.102;2023-03-14T08:22:14;98906.03;;;5.20;nan
70758;BME280;59316;52.964;7.102;2023-03-14T08:27:38;98936.38;;;4.92;nan
70758;BME280;59316;52.964;7.102;2023-03-14T08:33:00;98954.16;;;4.71;nan
70758;BME280;59316;52.964;7.102;2023-03-14T08:38:22;98990.25;;;4.46;nan
70758;BME280;59316;52.964;7.102;2023-03-14T08:43:44;98999.63;;;4.75;nan
70758;BME280;59316;52.964;7.102;2023-03-14T08:49:05;99016.06;;;5.01;nan
70758;BME280;59316;52.964;7.102;2023-03-14T08:54:27;99036.13;;;5.25;nan
70758;BME280;59316;52.964;7.102;2023-03-14T08:59:48;99062.38;;;5.46;nan
70758;BME280;59316;52.964;7.102;2023-03-14T09:05:10;99070.34;;;5.30;nan
70758;BME280;59316;52.964;7.102;2023-03-14T09:10:32;99097.53;;;5.50;nan
70758;BME280;59316;52.964;7.102;2023-03-14T09:15:55;99124.72;;;5.70;nan
70758;BME280;59316;52.964;7.102;2023-03-14T09:21:17;99149.97;;;5.94;nan
70758;BME280;59316;52.964;7.102;2023-03-14T09:26:38;99180.06;;;6.09;nan
70758;BME280;59316;52.964;7.102;2023-03-14T09:32:00;99189.19;;;6.15;nan
70758;BME280;59316;52.964;7.102;2023-03-14T09:37:21;99217.03;;;6.26;nan
70758;BME280;59316;52.964;7.102;2023-03-14T09:42:43;99218.25;;;6.07;nan
70758;BME280;59316;52.964;7.102;2023-03-14T09:48:05;99261.75;;;6.17;nan
70758;BME280;59316;52.964;7.102;2023-03-14T09:53:48;99273.72;;;6.84;nan
70758;BME280;59316;52.964;7.102;2023-03-14T09:59:12;99282.56;;;7.55;nan
70758;BME280;59316;52.964;7.102;2023-03-14T10:04:34;99291.69;;;7.61;nan
70758;BME280;59316;52.964;7.102;2023-03-14T10:09:56;99294.56;;;7.45;nan
70758;BME280;59316;52.964;7.102;2023-03-14T10:15:26;99317.59;;;7.38;nan
70758;BME280;59316;52.964;7.102;2023-03-14T10:21:28;99334.84;;;7.39;nan
70758;BME280;59316;52.964;7.102;2023-03-14T10:27:02;99349.16;;;7.21;nan
70758;BME280;59316;52.964;7.102;2023-03-14T10:38:02;99407.56;;;6.10;nan
70758;BME280;59316;52.964;7.102;2023-03-14T10:43:34;99406.84;;;6.21;nan
70758;BME280;59316;52.964;7.102;2023-03-14T10:48:57;99435.44;;;6.34;nan
70758;BME280;59316;52.964;7.102;2023-03-14T10:54:21;99449.63;;;7.22;nan
70758;BME280;59316;52.964;7.102;2023-03-14T10:59:43;99452.84;;;7.38;nan
70758;BME280;59316;52.964;7.102;2023-03-14T11:10:51;99506.16;;;7.83;nan
70758;BME280;59316;52.964;7.102;2023-03-14T11:22:18;99534.09;;;7.81;nan
70758;BME280;59316;52.964;7.102;2023-03-14T11:33:38;99575.34;;;8.37;nan
70758;BME280;59316;52.964;7.102;2023-03-14T11:39:15;99597.72;;;8.02;nan
70758;BME280;59316;52.964;7.102;2023-03-14T11:44:38;99632.66;;;7.72;nan
70758;BME280;59316;52.964;7.102;2023-03-14T11:50:17;99657.22;;;7.68;nan
70758;BME280;59316;52.964;7.102;2023-03-14T11:55:43;99659.41;;;7.62;nan
70758;BME280;59316;52.964;7.102;2023-03-14T12:01:09;99674.97;;;8.15;nan
70758;BME280;59316;52.964;7.102;2023-03-14T12:12:15;99696.03;;;7.99;nan
70758;BME280;59316;52.964;7.102;2023-03-14T12:17:41;99699.50;;;7.72;nan
70758;BME280;59316;52.964;7.102;2023-03-14T12:23:04;99725.59;;;8.99;nan
70758;BME280;59316;52.964;7.102;2023-03-14T12:28:31;99733.00;;;10.36;nan
70758;BME280;59316;52.964;7.102;2023-03-14T12:51:42;99786.47;;;9.24;nan
70758;BME280;59316;52.964;7.102;2023-03-14T12:57:13;99812.41;;;8.88;nan
70758;BME280;59316;52.964;7.102;2023-03-14T13:14:00;99854.38;;;8.19;nan
70758;BME280;59316;52.964;7.102;2023-03-14T13:19:26;99879.78;;;8.16;nan
70758;BME280;59316;52.964;7.102;2023-03-14T13:24:49;99886.28;;;7.54;nan
70758;BME280;59316;52.964;7.102;2023-03-14T13:35:58;99912.84;;;8.01;nan
70758;BME280;59316;52.964;7.102;2023-03-14T13:41:23;99922.22;;;9.35;nan
70758;BME280;59316;52.964;7.102;2023-03-14T13:46:45;99945.50;;;8.06;nan
70758;BME280;59316;52.964;7.102;2023-03-14T13:52:29;99973.66;;;8.54;nan
70758;BME280;59316;52.964;7.102;2023-03-14T13:57:54;99979.28;;;9.53;nan
70758;BME280;59316;52.964;7.102;2023-03-14T14:03:15;100000.16;;;8.88;nan
70758;BME280;59316;52.964;7.102;2023-03-14T14:08:40;100017.00;;;8.43;nan
70758;BME280;59316;52.964;7.102;2023-03-14T14:14:03;100044.19;;;8.38;nan
70758;BME280;59316;52.964;7.102;2023-03-14T14:19:30;100035.78;;;8.48;nan
70758;BME280;59316;52.964;7.102;2023-03-14T14:24:54;100051.00;;;9.09;nan
70758;BME280;59316;52.964;7.102;2023-03-14T14:35:40;100083.91;;;8.97;nan
70758;BME280;59316;52.964;7.102;2023-03-14T14:41:02;100105.78;;;7.82;nan
70758;BME280;59316;52.964;7.102;2023-03-14T14:46:27;100111.16;;;7.79;nan
70758;BME280;59316;52.964;7.102;2023-03-14T14:51:51;100124.41;;;7.45;nan
70758;BME280;59316;52.964;7.102;2023-03-14T14:57:22;100137.03;;;8.96;nan
70758;BME280;59316;52.964;7.102;2023-03-14T15:02:50;100144.47;;;10.19;nan
70758;BME280;59316;52.964;7.102;2023-03-14T15:08:15;100164.69;;;9.38;nan
70758;BME280;59316;52.964;7.102;2023-03-14T15:13:36;100161.13;;;8.43;nan
70758;BME280;59316;52.964;7.102;2023-03-14T15:19:00;100181.00;;;7.86;nan
70758;BME280;59316;52.964;7.102;2023-03-14T15:24:41;100213.00;;;7.58;nan
70758;BME280;59316;52.964;7.102;2023-03-14T15:30:03;100209.09;;;7.96;nan
70758;BME280;59316;52.964;7.102;2023-03-14T15:35:25;100230.38;;;7.57;nan
70758;BME280;59316;52.964;7.102;2023-03-14T15:40:47;100239.00;;;6.80;nan
70758;BME280;59316;52.964;7.102;2023-03-14T15:46:09;98955.59;;;-1.66;nan
70758;BME280;59316;52.964;7.102;2023-03-14T15:51:31;100258.44;;;6.04;nan
70758;BME280;59316;52.964;7.102;2023-03-14T15:56:53;100289.44;;;5.89;nan
70758;BME280;59316;52.964;7.102;2023-03-14T16:02:15;100309.38;;;5.52;nan
70758;BME280;59316;52.964;7.102;2023-03-14T16:07:36;100325.03;;;5.32;nan
70758;BME280;59316;52.964;7.102;2023-03-14T16:12:58;100345.91;;;5.48;nan
70758;BME280;59316;52.964;7.102;2023-03-14T16:18:20;100341.31;;;5.72;nan
70758;BME280;59316;52.964;7.102;2023-03-14T16:23:42;100357.13;;;5.85;nan
70758;BME280;59316;52.964;7.102;2023-03-14T16:29:04;100389.91;;;5.68;nan
70758;BME280;59316;52.964;7.102;2023-03-14T16:34:25;100368.25;;;5.50;nan
70758;BME280;59316;52.964;7.102;2023-03-14T16:39:47;100408.78;;;5.53;nan
70758;BME280;59316;52.964;7.102;2023-03-14T18:27:15;63551.88;;;-143.20;100.00
70758;BME280;59316;52.964;7.102;2023-03-14T18:32:37;63551.88;;;-143.20;100.00
70758;BME280;59316;52.964;7.102;2023-03-14T18:37:58;63551.88;;;-143.20;100.00
70758;BME280;59316;52.964;7.102;2023-03-14T18:43:19;63551.88;;;-143.20;100.00
70758;BME280;59316;52.964;7.102;2023-03-14T18:48:41;63551.88;;;-143.20;100.00
70758;BME280;59316;52.964;7.102;2023-03-14T18:54:02;63551.88;;;194.85;100.00
70758;BME280;59316;52.964;7.102;2023-03-14T19:04:52;63551.88;;;25.75;100.00
70758;BME280;59316;52.964;7.102;2023-03-14T19:10:13;63551.88;;;-143.20;100.00
70758;BME280;59316;52.964;7.102;2023-03-14T19:15:35;63551.88;;;-143.20;100.00
70758;BME280;59316;52.964;7.102;2023-03-14T19:20:59;63551.88;;;-143.20;100.00
70758;BME280;59316;52.964;7.102;2023-03-14T19:26:22;63551.88;;;-143.20;100.00
70758;BME280;59316;52.964;7.102;2023-03-14T19:31:43;63551.88;;;-143.20;100.00
70758;BME280;59316;52.964;7.102;2023-03-14T19:37:05;63551.88;;;25.75;100.00
70758;BME280;59316;52.964;7.102;2023-03-14T19:42:26;63551.88;;;-143.20;100.00
70758;BME280;59316;52.964;7.102;2023-03-14T19:47:47;63551.88;;;-143.20;100.00
70758;BME280;59316;52.964;7.102;2023-03-14T19:53:09;63551.88;;;-143.20;100.00
70758;BME280;59316;52.964;7.102;2023-03-14T19:58:31;63551.88;;;-143.20;100.00
70758;BME280;59316;52.964;7.102;2023-03-14T20:03:52;63551.88;;;-143.20;100.00
70758;BME280;59316;52.964;7.102;2023-03-14T20:09:14;63551.88;;;-143.20;100.00
70758;BME280;59316;52.964;7.102;2023-03-14T20:14:35;63551.88;;;-143.20;100.00
70758;BME280;59316;52.964;7.102;2023-03-14T20:19:57;63551.88;;;-143.20;100.00
70758;BME280;59316;52.964;7.102;2023-03-14T20:25:18;63551.88;;;-143.20;100.00
70758;BME280;59316;52.964;7.102;2023-03-14T20:30:41;63551.88;;;-143.20;100.00
70758;BME280;59316;52.964;7.102;2023-03-14T20:36:03;63551.88;;;-143.20;100.00
70758;BME280;59316;52.964;7.102;2023-03-14T20:41:24;63551.88;;;-143.20;100.00
70758;BME280;59316;52.964;7.102;2023-03-14T20:46:46;63551.88;;;-143.20;100.00
70758;BME280;59316;52.964;7.102;2023-03-14T20:52:07;63551.88;;;-143.20;100.00
70758;BME280;59316;52.964;7.102;2023-03-14T20:57:29;63551.88;;;-143.20;100.00
70758;BME280;59316;52.964;7.102;2023-03-14T21:02:50;63551.88;;;-143.20;100.00
70758;BME280;59316;52.964;7.102;2023-03-14T21:08:18;63551.88;;;25.71;100.00
70758;BME280;59316;52.964;7.102;2023-03-14T21:13:41;63551.88;;;-143.20;100.00
70758;BME280;59316;52.964;7.102;2023-03-14T21:19:02;63551.88;;;-143.20;100.00
70758;BME280;59316;52.964;7.102;2023-03-14T21:24:24;63551.88;;;-143.20;100.00
70758;BME280;59316;52.964;7.102;2023-03-14T21:29:46;63551.88;;;-143.20;100.00
70758;BME280;59316;52.964;7.102;2023-03-14T21:35:07;63551.88;;;-143.20;100.00
70758;BME280;59316;52.964;7.102;2023-03-14T21:40:29;63551.88;;;-143.20;100.00
70758;BME280;59316;52.964;7.102;2023-03-14T21:45:50;63551.88;;;-143.20;100.00
70758;BME280;59316;52.964;7.102;2023-03-14T21:51:12;63551.88;;;-143.20;100.00
70758;BME280;59316;52.964;7.102;2023-03-14T21:56:33;63551.88;;;-143.20;100.00
70758;BME280;59316;52.964;7.102;2023-03-14T22:01:57;63551.88;;;-143.20;100.00
70758;BME280;59316;52.964;7.102;2023-03-14T22:07:20;63551.88;;;-143.20;100.00
70758;BME280;59316;52.964;7.102;2023-03-14T22:12:41;63551.88;;;-143.20;100.00
70758;BME280;59316;52.964;7.102;2023-03-14T22:18:03;63551.88;;;-143.20;100.00
70758;BME280;59316;52.964;7.102;2023-03-14T22:23:24;63551.88;;;-143.20;100.00
70758;BME280;59316;52.964;7.102;2023-03-14T22:28:46;63551.88;;;-143.20;100.00
70758;BME280;59316;52.964;7.102;2023-03-14T22:34:07;63551.88;;;-143.20;100.00
70758;BME280;59316;52.964;7.102;2023-03-14T22:39:29;63551.88;;;-143.20;100.00
70758;BME280;59316;52.964;7.102;2023-03-14T22:44:52;63551.88;;;-143.20;100.00
70758;BME280;59316;52.964;7.102;2023-03-14T22:50:14;63551.88;;;-143.20;100.00
70758;BME280;59316;52.964;7.102;2023-03-14T22:55:35;63551.88;;;-143.20;100.00
70758;BME280;59316;52.964;7.102;2023-03-14T23:00:56;63551.88;;;-143.20;100.00
70758;BME280;59316;52.964;7.102;2023-03-14T23:06:20;63551.88;;;-143.20;100.00
70758;BME280;59316;52.964;7.102;2023-03-14T23:11:42;63551.88;;;-143.20;100.00
70758;BME280;59316;52.964;7.102;2023-03-14T23:17:03;63551.88;;;-143.20;100.00
70758;BME280;59316;52.964;7.102;2023-03-14T23:22:25;63551.88;;;-143.20;100.00
70758;BME280;59316;52.964;7.102;2023-03-14T23:27:46;63551.88;;;-143.20;100.00
70758;BME280;59316;52.964;7.102;2023-03-14T23:33:07;63551.88;;;-143.20;100.00
70758;BME280;59316;52.964;7.102;2023-03-14T23:38:30;63551.88;;;-143.20;100.00
70758;BME280;59316;52.964;7.102;2023-03-14T23:43:52;63551.88;;;-143.20;100.00
70758;BME280;59316;52.964;7.102;2023-03-14T23:49:14;63551.88;;;-143.20;100.00
70758;BME280;59316;52.964;7.102;2023-03-14T23:54:35;63551.88;;;-143.20;100.00
70758;BME280;59316;52.964;7.102;2023-03-14T23:59:56;63551.88;;;-143.20;100.00
